Terminal Aerodrome Forecast
Issued by NWS

Home | Current Version | Previous Version | Text Only | Print | Product List | Glossary On
Versions: 1 2 3 4 5 6 7 8 9 10 11 12 13 14 15 16 17 18 19
000
FTUS46 KSEW 010500
TAFCLM
TAF
KCLM 010525Z 0106/0206 00000KT P6SM SCT050 OVC090
     FM011200 VRB03KT 5SM -RA BR SCT025 OVC050
     FM011800 VRB03KT 3SM -RA BR OVC025
     FM012000 VRB03KT 3SM -RA BR OVC015=

USA.gov is the U.S. government's official web portal to all federal, state and local government web resources and services.